createdAt,value
2022-08-25T00:00:21.685Z,22.74
2022-08-25T00:02:55.187Z,22.73
2022-08-25T00:05:27.758Z,22.72
2022-08-25T00:07:57.745Z,22.75
2022-08-25T00:10:25.789Z,22.58
2022-08-25T00:12:54.304Z,22.72
2022-08-25T00:15:23.972Z,22.50
2022-08-25T00:17:53.607Z,22.52
2022-08-25T00:20:22.475Z,22.48
2022-08-25T00:22:50.605Z,22.40
2022-08-25T00:25:19.330Z,22.28
2022-08-25T00:27:48.996Z,22.17
2022-08-25T00:30:17.457Z,22.16
2022-08-25T00:32:51.472Z,21.96
2022-08-25T00:35:24.532Z,21.55
2022-08-25T00:37:52.506Z,21.77
2022-08-25T00:40:20.672Z,22.38
2022-08-25T00:42:48.761Z,22.19
2022-08-25T00:45:16.861Z,22.32
2022-08-25T00:47:46.246Z,21.69
2022-08-25T00:50:14.474Z,21.75
2022-08-25T00:52:45.221Z,21.92
2022-08-25T00:55:15.996Z,21.73
2022-08-25T00:57:47.453Z,21.44
2022-08-25T01:00:19.742Z,21.80
2022-08-25T01:02:49.218Z,21.90
2022-08-25T01:05:18.214Z,21.55
2022-08-25T01:07:46.626Z,21.49
2022-08-25T01:10:15.253Z,21.66
2022-08-25T01:12:43.293Z,21.58
2022-08-25T01:15:14.306Z,21.36
2022-08-25T01:17:49.362Z,21.74
2022-08-25T01:20:22.249Z,21.77
2022-08-25T01:23:22.975Z,21.66
2022-08-25T01:26:19.647Z,21.62
2022-08-25T01:29:25.591Z,21.49
2022-08-25T01:32:37.270Z,21.40
2022-08-25T01:35:06.087Z,21.31
2022-08-25T01:37:35.519Z,21.41
2022-08-25T01:40:06.189Z,21.57
2022-08-25T01:43:08.958Z,21.62
2022-08-25T01:46:13.400Z,21.63
2022-08-25T01:48:41.412Z,21.41
2022-08-25T01:51:09.558Z,21.50
2022-08-25T01:53:37.525Z,21.36
2022-08-25T01:56:17.007Z,21.39
2022-08-25T01:59:04.033Z,21.16
2022-08-25T02:01:34.421Z,21.28
2022-08-25T02:04:02.516Z,21.01
2022-08-25T02:06:33.248Z,20.96
2022-08-25T02:09:04.837Z,20.78
2022-08-25T02:11:35.914Z,21.03
2022-08-25T02:22:18.925Z,20.82
2022-08-25T02:24:46.990Z,20.51
2022-08-25T02:27:16.495Z,20.53
2022-08-25T02:29:53.941Z,20.68
2022-08-25T02:32:21.905Z,20.77
2022-08-25T02:34:50.086Z,20.85
2022-08-25T02:37:18.125Z,21.06
2022-08-25T02:39:46.234Z,20.94
2022-08-25T02:42:14.683Z,21.05
2022-08-25T02:44:44.038Z,20.87
2022-08-25T02:47:12.076Z,20.98
2022-08-25T02:49:40.081Z,20.89
2022-08-25T02:52:08.453Z,20.98
2022-08-25T02:54:36.992Z,20.90
2022-08-25T02:57:05.391Z,20.87
2022-08-25T02:59:33.345Z,20.71
2022-08-25T03:02:02.788Z,20.80
2022-08-25T03:04:31.960Z,20.75
2022-08-25T03:07:00.330Z,20.60
2022-08-25T03:09:28.724Z,20.65
2022-08-25T03:11:56.660Z,20.76
2022-08-25T03:14:24.682Z,20.72
2022-08-25T03:16:52.655Z,20.70
2022-08-25T03:19:24.379Z,20.59
2022-08-25T03:21:56.236Z,20.58
2022-08-25T03:24:24.322Z,20.45
2022-08-25T03:26:54.176Z,20.48
2022-08-25T03:29:22.365Z,20.46
2022-08-25T03:31:50.812Z,20.41
2022-08-25T03:34:20.316Z,20.35
2022-08-25T03:36:53.194Z,20.27
2022-08-25T03:39:22.287Z,20.27
2022-08-25T03:41:51.666Z,20.31
2022-08-25T03:44:20.591Z,20.19
2022-08-25T03:46:51.194Z,20.22
2022-08-25T03:49:21.062Z,20.29
2022-08-25T03:51:52.338Z,20.32
2022-08-25T03:54:22.571Z,20.46
2022-08-25T03:56:50.555Z,20.41
2022-08-25T03:59:19.539Z,20.45
2022-08-25T04:01:52.615Z,20.38
2022-08-25T04:04:22.752Z,20.39
2022-08-25T04:06:52.995Z,20.25
2022-08-25T04:09:21.070Z,20.22
2022-08-25T04:11:51.922Z,20.16
2022-08-25T04:14:22.255Z,20.11
2022-08-25T04:16:50.522Z,20.11
2022-08-25T04:19:18.507Z,20.17
2022-08-25T04:21:46.461Z,20.21
2022-08-25T04:24:16.155Z,20.05
2022-08-25T04:26:46.942Z,20.00
2022-08-25T04:29:17.114Z,19.87
2022-08-25T04:31:47.016Z,19.95
2022-08-25T04:34:30.330Z,19.92
2022-08-25T04:37:00.488Z,20.09
2022-08-25T04:39:30.446Z,19.88
2022-08-25T04:42:00.582Z,19.95
2022-08-25T04:44:29.147Z,20.00
2022-08-25T04:46:57.267Z,19.96
2022-08-25T04:49:25.214Z,19.93
2022-08-25T04:51:53.232Z,20.09
2022-08-25T04:54:22.215Z,20.15
2022-08-25T04:56:54.484Z,20.09
2022-08-25T04:59:29.516Z,19.95
2022-08-25T05:02:02.266Z,20.05
2022-08-25T05:04:30.773Z,20.01
2022-08-25T05:06:58.887Z,20.01
2022-08-25T05:09:27.412Z,19.93
2022-08-25T05:11:57.689Z,20.09
2022-08-25T05:14:26.546Z,20.14
2022-08-25T05:16:55.480Z,20.17
2022-08-25T05:19:23.978Z,20.30
2022-08-25T05:21:52.142Z,20.08
2022-08-25T05:24:20.972Z,20.03
2022-08-25T05:26:48.956Z,20.00
2022-08-25T05:29:18.403Z,20.04
2022-08-25T05:31:50.373Z,20.15
2022-08-25T05:34:19.722Z,20.09
2022-08-25T05:36:47.754Z,20.28
2022-08-25T05:39:15.718Z,20.47
2022-08-25T05:41:43.779Z,20.40
2022-08-25T05:44:12.726Z,20.40
2022-08-25T05:46:42.061Z,20.52
2022-08-25T05:49:10.205Z,20.62
2022-08-25T05:51:38.245Z,20.64
2022-08-25T05:54:06.695Z,20.53
2022-08-25T05:56:34.634Z,20.55
2022-08-25T05:59:07.357Z,20.73
2022-08-25T06:01:54.506Z,20.77
2022-08-25T06:04:24.379Z,20.95
2022-08-25T06:06:53.968Z,21.04
2022-08-25T06:09:22.601Z,21.14
2022-08-25T06:11:54.498Z,21.12
2022-08-25T06:14:23.234Z,21.19
2022-08-25T06:16:51.667Z,21.14
2022-08-25T06:19:19.702Z,21.46
2022-08-25T06:21:49.217Z,21.41
2022-08-25T06:24:17.205Z,21.41
2022-08-25T06:26:45.207Z,21.51
2022-08-25T06:29:14.135Z,21.58
2022-08-25T06:31:42.855Z,21.71
2022-08-25T06:34:11.052Z,21.75
2022-08-25T06:36:39.083Z,21.85
2022-08-25T06:39:10.575Z,22.05
2022-08-25T06:41:38.998Z,21.92
2022-08-25T06:44:07.266Z,21.92
2022-08-25T06:46:37.019Z,22.13
2022-08-25T06:49:06.139Z,22.33
2022-08-25T06:51:36.247Z,22.40
2022-08-25T06:54:05.307Z,22.45
2022-08-25T06:56:35.245Z,22.54
2022-08-25T06:59:03.811Z,22.54
2022-08-25T07:01:32.291Z,22.59
2022-08-25T07:04:01.694Z,22.67
2022-08-25T07:06:31.940Z,22.93
2022-08-25T07:09:00.337Z,22.88
2022-08-25T07:11:28.447Z,22.98
2022-08-25T07:13:57.809Z,22.98
2022-08-25T07:16:29.588Z,22.95
2022-08-25T07:18:59.108Z,23.23
2022-08-25T07:21:33.172Z,23.07
2022-08-25T07:24:03.455Z,23.35
2022-08-25T07:26:37.896Z,23.42
2022-08-25T07:29:10.550Z,23.42
2022-08-25T07:31:38.903Z,23.34
2022-08-25T07:34:25.529Z,23.21
2022-08-25T07:36:53.824Z,23.56
2022-08-25T07:39:21.952Z,23.69
2022-08-25T07:41:52.248Z,23.85
2022-08-25T07:44:22.440Z,23.76
2022-08-25T07:46:50.930Z,23.70
2022-08-25T07:49:23.326Z,23.89
2022-08-25T07:52:03.580Z,23.85
2022-08-25T07:54:37.610Z,23.87
2022-08-25T07:57:07.464Z,24.04
2022-08-25T07:59:39.215Z,24.08
2022-08-25T08:02:09.287Z,23.93
2022-08-25T08:04:48.694Z,23.66
2022-08-25T08:07:18.979Z,24.17
2022-08-25T08:09:48.713Z,24.03
2022-08-25T08:12:21.131Z,24.07
2022-08-25T08:14:52.473Z,24.18
2022-08-25T08:17:24.115Z,24.10
2022-08-25T08:19:52.160Z,24.31
2022-08-25T08:22:20.430Z,24.33
2022-08-25T08:24:54.610Z,24.39
2022-08-25T08:27:24.594Z,24.32
2022-08-25T08:29:54.739Z,24.02
2022-08-25T08:32:35.451Z,24.02
2022-08-25T08:35:11.505Z,23.71
2022-08-25T08:37:42.221Z,24.09
2022-08-25T08:40:11.887Z,24.17
2022-08-25T08:42:49.005Z,24.19
2022-08-25T08:45:31.341Z,24.63
2022-08-25T08:48:46.104Z,24.96
2022-08-25T08:51:22.947Z,25.09
2022-08-25T08:53:57.230Z,25.45
2022-08-25T08:56:30.751Z,25.45
2022-08-25T08:59:05.688Z,25.52
2022-08-25T09:01:53.219Z,25.52
2022-08-25T09:04:27.966Z,25.71
2022-08-25T09:06:56.630Z,25.79
2022-08-25T09:09:28.163Z,25.95
2022-08-25T09:12:02.727Z,25.88
2022-08-25T09:14:53.919Z,26.02
2022-08-25T09:17:34.966Z,26.05
2022-08-25T09:20:19.480Z,25.96
2022-08-25T09:22:54.019Z,26.18
2022-08-25T09:25:48.600Z,26.34
2022-08-25T09:28:20.942Z,26.31
2022-08-25T09:30:55.310Z,26.20
2022-08-25T09:33:26.790Z,25.85
2022-08-25T09:35:57.365Z,26.76
2022-08-25T09:38:26.443Z,26.62
2022-08-25T09:41:00.883Z,26.82
2022-08-25T09:43:34.289Z,26.93
2022-08-25T09:46:04.738Z,26.84
2022-08-25T09:48:40.796Z,26.88
2022-08-25T09:51:21.913Z,27.20
2022-08-25T09:53:57.898Z,27.04
2022-08-25T09:56:31.341Z,27.06
2022-08-25T09:59:21.469Z,27.22
2022-08-25T10:02:08.763Z,27.16
2022-08-25T10:04:40.011Z,27.60
2022-08-25T10:07:24.163Z,27.55
2022-08-25T10:09:56.983Z,27.78
2022-08-25T10:12:31.161Z,27.38
2022-08-25T10:14:59.600Z,27.23
2022-08-25T10:17:34.259Z,27.95
2022-08-25T10:20:19.928Z,27.98
2022-08-25T10:22:50.481Z,28.31
2022-08-25T10:25:24.784Z,27.97
2022-08-25T10:28:00.680Z,28.07
2022-08-25T10:30:32.985Z,28.15
2022-08-25T10:33:11.383Z,28.39
2022-08-25T10:35:55.080Z,28.52
2022-08-25T10:38:36.212Z,28.24
2022-08-25T10:41:15.678Z,27.66
2022-08-25T10:43:47.102Z,28.74
2022-08-25T10:46:25.976Z,28.55
2022-08-25T10:49:06.185Z,28.39
2022-08-25T10:51:53.465Z,28.87
2022-08-25T10:54:33.038Z,28.81
2022-08-25T10:57:09.045Z,29.10
2022-08-25T11:00:02.345Z,28.85
2022-08-25T11:03:01.955Z,29.42
2022-08-25T11:05:36.839Z,28.90
2022-08-25T11:08:11.531Z,28.76
2022-08-25T11:10:48.038Z,29.03
2022-08-25T11:13:21.229Z,29.13
2022-08-25T11:16:16.164Z,29.03
2022-08-25T11:18:49.981Z,29.17
2022-08-25T11:21:22.274Z,29.30
2022-08-25T11:23:57.106Z,28.25
2022-08-25T11:26:31.865Z,29.30
2022-08-25T11:29:05.522Z,28.84
2022-08-25T11:31:42.055Z,29.44
2022-08-25T11:34:11.341Z,29.76
2022-08-25T11:36:41.553Z,29.72
2022-08-25T11:39:19.020Z,29.19
2022-08-25T11:41:59.594Z,29.97
2022-08-25T11:44:51.845Z,30.19
2022-08-25T11:47:47.906Z,30.45
2022-08-25T11:50:32.885Z,30.63
2022-08-25T11:53:23.603Z,30.77
2022-08-25T11:56:02.881Z,30.41
2022-08-25T11:58:37.387Z,30.89
2022-08-25T12:01:07.453Z,30.46
2022-08-25T12:03:53.030Z,29.66
2022-08-25T12:06:26.225Z,30.59
2022-08-25T12:09:20.262Z,30.99
2022-08-25T12:11:59.532Z,31.14
2022-08-25T12:14:51.802Z,31.54
2022-08-25T12:17:42.875Z,31.15
2022-08-25T12:20:11.087Z,31.30
2022-08-25T12:23:01.332Z,30.80
2022-08-25T12:25:47.431Z,31.47
2022-08-25T12:28:47.832Z,32.11
2022-08-25T12:31:26.075Z,30.67
2022-08-25T12:34:08.398Z,32.04
2022-08-25T12:36:40.520Z,32.02
2022-08-25T12:39:19.975Z,32.19
2022-08-25T12:41:58.406Z,32.53
2022-08-25T12:44:47.165Z,32.52
2022-08-25T12:47:32.268Z,32.51
2022-08-25T12:50:34.106Z,32.59
2022-08-25T12:53:12.345Z,32.55
2022-08-25T12:55:45.442Z,33.05
2022-08-25T12:58:15.678Z,32.83
2022-08-25T13:01:01.099Z,32.94
2022-08-25T13:04:00.818Z,32.98
2022-08-25T13:06:40.703Z,33.09
2022-08-25T13:09:58.739Z,33.83
2022-08-25T13:12:31.143Z,33.59
2022-08-25T13:15:00.293Z,33.69
2022-08-25T13:17:30.417Z,33.54
2022-08-25T13:20:18.520Z,33.67
2022-08-25T13:22:50.957Z,33.52
2022-08-25T13:25:32.359Z,33.46
2022-08-25T13:28:03.276Z,33.53
2022-08-25T13:30:32.950Z,33.29
2022-08-25T13:33:01.360Z,33.33
2022-08-25T13:35:38.395Z,33.63
2022-08-25T13:38:15.098Z,34.36
2022-08-25T13:40:44.862Z,34.46
2022-08-25T13:43:14.981Z,34.21
2022-08-25T13:45:44.985Z,34.19
2022-08-25T13:48:22.639Z,34.41
2022-08-25T13:50:53.136Z,34.41
2022-08-25T13:53:30.739Z,34.40
2022-08-25T13:56:01.400Z,33.30
2022-08-25T13:58:39.157Z,33.66
2022-08-25T14:01:22.143Z,31.06
2022-08-25T14:04:26.869Z,32.11
2022-08-25T14:07:19.388Z,33.85
2022-08-25T14:09:50.128Z,34.09
2022-08-25T14:12:37.924Z,33.56
2022-08-25T14:15:12.822Z,34.89
2022-08-25T14:20:20.362Z,35.11
2022-08-25T14:22:51.611Z,35.00
2022-08-25T14:25:20.074Z,34.69
2022-08-25T14:28:13.702Z,33.89
2022-08-25T14:30:46.445Z,35.30
2022-08-25T14:33:15.676Z,34.28
2022-08-25T14:35:45.077Z,33.25
2022-08-25T14:38:15.670Z,34.86
2022-08-25T14:40:45.595Z,34.71
2022-08-25T14:43:15.728Z,35.28
2022-08-25T14:45:45.331Z,34.98
2022-08-25T14:48:17.219Z,32.81
2022-08-25T14:50:45.891Z,35.21
2022-08-25T14:53:15.215Z,35.43
2022-08-25T14:55:43.197Z,35.43
2022-08-25T14:58:11.945Z,35.85
2022-08-25T15:00:43.292Z,35.96
2022-08-25T15:03:14.367Z,36.13
2022-08-25T15:05:42.441Z,33.89
2022-08-25T15:08:32.917Z,35.28
2022-08-25T15:11:08.813Z,35.52
2022-08-25T15:13:37.101Z,36.12
2022-08-25T15:16:11.729Z,35.95
2022-08-25T15:18:39.953Z,36.11
2022-08-25T15:21:10.074Z,36.38
2022-08-25T15:23:38.228Z,36.00
2022-08-25T15:26:15.356Z,36.29
2022-08-25T15:28:45.427Z,35.16
2022-08-25T15:31:13.691Z,35.38
2022-08-25T15:33:45.165Z,35.86
2022-08-25T15:36:15.637Z,36.16
2022-08-25T15:38:48.727Z,36.40
2022-08-25T15:41:18.567Z,36.21
2022-08-25T15:43:51.656Z,36.07
2022-08-25T15:46:22.907Z,35.88
2022-08-25T15:48:53.366Z,35.68
2022-08-25T15:51:22.192Z,36.50
2022-08-25T15:53:50.278Z,36.43
2022-08-25T15:56:26.836Z,35.76
2022-08-25T15:59:05.185Z,35.79
2022-08-25T16:01:37.299Z,35.33
2022-08-25T16:04:06.512Z,35.26
2022-08-25T16:06:35.205Z,35.54
2022-08-25T16:09:03.211Z,35.55
2022-08-25T16:11:35.229Z,35.36
2022-08-25T16:14:07.459Z,35.41
2022-08-25T16:16:36.001Z,35.48
2022-08-25T16:19:04.941Z,34.88
2022-08-25T16:21:42.131Z,35.14
2022-08-25T16:24:17.177Z,35.16
2022-08-25T16:26:48.525Z,35.58
2022-08-25T16:29:17.292Z,35.74
2022-08-25T16:31:52.930Z,35.33
2022-08-25T16:34:24.527Z,35.31
2022-08-25T16:36:53.086Z,35.45
2022-08-25T16:39:21.538Z,35.49
2022-08-25T16:41:55.381Z,34.70
2022-08-25T16:44:24.440Z,35.25
2022-08-25T16:46:55.376Z,34.96
2022-08-25T16:49:25.420Z,35.04
2022-08-25T16:51:57.248Z,35.23
2022-08-25T16:54:44.033Z,35.47
2022-08-25T16:57:13.519Z,35.50
2022-08-25T16:59:42.593Z,34.95
2022-08-25T17:02:12.066Z,34.60
2022-08-25T17:04:40.819Z,34.27
2022-08-25T17:07:08.905Z,34.06
2022-08-25T17:09:37.220Z,34.33
2022-08-25T17:12:06.021Z,34.10
2022-08-25T17:14:36.834Z,34.31
2022-08-25T17:17:07.049Z,34.57
2022-08-25T17:19:35.341Z,34.01
2022-08-25T17:22:03.652Z,34.47
2022-08-25T17:24:34.801Z,34.01
2022-08-25T17:27:03.365Z,33.89
2022-08-25T17:29:31.586Z,34.00
2022-08-25T17:32:01.369Z,33.93
2022-08-25T17:34:29.862Z,33.81
2022-08-25T17:36:59.269Z,33.93
2022-08-25T17:39:27.876Z,33.77
2022-08-25T17:41:56.552Z,33.01
2022-08-25T17:44:25.204Z,32.70
2022-08-25T17:46:53.330Z,32.35
2022-08-25T17:49:23.160Z,31.96
2022-08-25T17:51:51.246Z,31.93
2022-08-25T17:54:20.152Z,31.63
2022-08-25T17:56:48.915Z,31.43
2022-08-25T17:59:18.881Z,31.27
2022-08-25T18:01:47.843Z,31.39
2022-08-25T18:04:18.004Z,30.95
2022-08-25T18:06:49.369Z,31.03
2022-08-25T18:09:17.846Z,30.70
2022-08-25T18:11:46.021Z,30.38
2022-08-25T18:14:16.572Z,30.18
2022-08-25T18:16:44.745Z,30.27
2022-08-25T18:19:14.391Z,30.25
2022-08-25T18:21:43.240Z,30.30
2022-08-25T18:24:13.365Z,30.02
2022-08-25T18:26:41.644Z,29.93
2022-08-25T18:29:12.191Z,29.95
2022-08-25T18:31:41.077Z,29.53
2022-08-25T18:34:11.542Z,29.60
2022-08-25T18:36:41.155Z,29.36
2022-08-25T18:39:28.070Z,29.57
2022-08-25T18:42:01.794Z,29.47
2022-08-25T18:44:29.827Z,29.45
2022-08-25T18:46:58.029Z,29.16
2022-08-25T18:49:26.782Z,28.99
2022-08-25T18:51:56.722Z,29.11
2022-08-25T18:54:24.658Z,28.87
2022-08-25T18:56:53.935Z,28.76
2022-08-25T18:59:24.128Z,28.75
2022-08-25T19:01:53.791Z,28.75
2022-08-25T19:04:23.244Z,28.70
2022-08-25T19:06:59.761Z,28.59
2022-08-25T19:09:27.731Z,28.48
2022-08-25T19:11:57.105Z,28.11
2022-08-25T19:14:26.861Z,28.03
2022-08-25T19:16:55.032Z,27.69
2022-08-25T19:19:24.093Z,27.69
2022-08-25T19:21:52.077Z,27.40
2022-08-25T19:24:20.387Z,27.24
2022-08-25T19:26:51.432Z,27.15
2022-08-25T19:29:22.370Z,27.08
2022-08-25T19:31:51.708Z,27.18
2022-08-25T19:34:24.093Z,26.96
2022-08-25T19:36:56.262Z,26.99
2022-08-25T19:39:25.660Z,27.33
2022-08-25T19:41:53.756Z,27.42
2022-08-25T19:44:21.697Z,27.65
2022-08-25T19:46:51.478Z,27.54
2022-08-25T19:49:21.753Z,26.87
2022-08-25T19:51:51.968Z,26.66
2022-08-25T19:54:23.592Z,26.70
2022-08-25T19:56:54.305Z,26.66
2022-08-25T19:59:34.259Z,26.34
2022-08-25T20:02:15.340Z,26.19
2022-08-25T20:04:49.334Z,26.32
2022-08-25T20:07:19.099Z,26.22
2022-08-25T20:09:47.079Z,25.97
2022-08-25T20:14:48.195Z,26.02
2022-08-25T20:17:24.218Z,26.12
2022-08-25T20:19:55.534Z,26.33
2022-08-25T20:22:26.421Z,26.24
2022-08-25T20:24:57.458Z,26.21
2022-08-25T20:27:28.491Z,26.37
2022-08-25T20:29:56.670Z,26.22
2022-08-25T20:32:26.273Z,25.57
2022-08-25T20:34:57.065Z,25.39
2022-08-25T20:37:25.925Z,25.45
2022-08-25T20:39:54.405Z,25.45
2022-08-25T20:42:22.431Z,25.30
2022-08-25T20:44:50.447Z,24.94
2022-08-25T20:47:20.691Z,25.14
2022-08-25T20:49:50.480Z,24.84
2022-08-25T20:52:20.141Z,24.85
2022-08-25T20:54:50.541Z,24.76
2022-08-25T20:57:25.678Z,24.74
2022-08-25T20:59:54.111Z,24.84
2022-08-25T21:02:22.386Z,24.93
2022-08-25T21:04:51.852Z,25.36
2022-08-25T21:07:20.752Z,25.37
2022-08-25T21:09:51.810Z,25.37
2022-08-25T21:12:22.616Z,25.62
2022-08-25T21:14:53.039Z,25.53
2022-08-25T21:17:21.593Z,25.49
2022-08-25T21:19:51.831Z,25.37
2022-08-25T21:22:20.113Z,25.45
2022-08-25T21:24:48.531Z,25.40
2022-08-25T21:27:16.627Z,25.25
2022-08-25T21:29:54.890Z,25.13
2022-08-25T21:32:25.923Z,25.14
2022-08-25T21:34:56.799Z,25.03
2022-08-25T21:37:35.263Z,25.22
2022-08-25T21:40:03.410Z,25.22
2022-08-25T21:42:35.631Z,25.17
2022-08-25T21:45:03.694Z,25.06
2022-08-25T21:47:31.693Z,25.01
2022-08-25T21:50:05.753Z,25.15
2022-08-25T21:52:34.807Z,25.17
2022-08-25T21:55:03.188Z,24.98
2022-08-25T21:57:31.286Z,25.07
2022-08-25T21:59:59.492Z,25.09
2022-08-25T22:02:27.539Z,25.04
2022-08-25T22:04:55.811Z,24.88
2022-08-25T22:07:25.478Z,24.71
2022-08-25T22:09:54.203Z,24.73
2022-08-25T22:12:22.442Z,24.82
2022-08-25T22:14:51.965Z,24.71
2022-08-25T22:17:21.021Z,24.73
2022-08-25T22:19:53.174Z,24.59
2022-08-25T22:22:22.677Z,24.53
2022-08-25T22:24:57.093Z,24.50
2022-08-25T22:27:25.486Z,24.41
2022-08-25T22:29:53.530Z,24.30
2022-08-25T22:32:21.896Z,24.32
2022-08-25T22:34:49.922Z,24.40
2022-08-25T22:37:18.938Z,24.34
2022-08-25T22:39:47.470Z,24.39
2022-08-25T22:42:18.518Z,24.47
2022-08-25T22:44:46.556Z,24.44
2022-08-25T22:47:14.822Z,24.28
2022-08-25T22:49:42.954Z,24.25
2022-08-25T22:52:13.040Z,24.22
2022-08-25T22:54:42.233Z,24.30
2022-08-25T22:57:10.606Z,24.32
2022-08-25T22:59:42.125Z,24.12
2022-08-25T23:02:10.081Z,24.07
2022-08-25T23:04:41.555Z,24.11
2022-08-25T23:07:11.755Z,24.12
2022-08-25T23:09:39.764Z,24.01
2022-08-25T23:12:08.229Z,23.89
2022-08-25T23:14:36.950Z,24.08
2022-08-25T23:17:07.700Z,24.13
2022-08-25T23:19:35.902Z,24.07
2022-08-25T23:22:16.160Z,23.98
2022-08-25T23:24:45.942Z,23.95
2022-08-25T23:27:15.676Z,23.76
2022-08-25T23:29:46.050Z,23.85
2022-08-25T23:32:15.985Z,23.64
2022-08-25T23:34:46.550Z,23.75
2022-08-25T23:37:15.483Z,23.69
2022-08-25T23:39:45.775Z,23.76
2022-08-25T23:42:13.855Z,23.80
2022-08-25T23:44:41.806Z,23.88
2022-08-25T23:47:11.924Z,23.79
2022-08-25T23:49:41.582Z,23.65
2022-08-25T23:52:09.588Z,23.47
2022-08-25T23:54:37.560Z,23.49
2022-08-25T23:57:06.706Z,23.42
2022-08-25T23:59:35.011Z,22.79
